< Typhoon 196008 1960 Season Typhoon 196010 >
Typhoon 196009 (TRIX)
General InformationTrack Information on Google Maps || Disaster Info.ResourceGoogle EarthGE AnimationAtom FeedGeoJSON
Detalied Best Track (Time Zone = UTC)
Year Month Day Hour Lat. Long. Pressure (hPa) Wind (kt) Class Image Chart
1960 8 2 06 10.6 137.8 1006 0 2 -- Chart
1960 8 2 12 10.8 137.0 1008 0 2 -- Chart
1960 8 2 18 11.0 136.0 1006 0 2 -- Chart
1960 8 3 00 11.6 135.4 1006 0 2 -- Chart
1960 8 3 06 12.2 135.2 1006 0 2 -- Chart
1960 8 3 12 12.9 135.4 1006 0 2 -- Chart
1960 8 3 18 13.5 135.5 1004 0 2 -- Chart
1960 8 4 00 14.2 136.0 1004 0 2 -- Chart
1960 8 4 06 15.0 136.0 1000 0 9 -- Chart
1960 8 4 12 15.6 135.4 998 0 9 -- Chart
1960 8 4 18 16.1 135.0 990 0 9 -- Chart
1960 8 5 00 16.7 134.6 985 0 9 -- Chart
1960 8 5 06 17.2 134.3 980 0 9 -- Chart
1960 8 5 12 17.8 133.9 980 0 9 -- Chart
1960 8 5 18 18.8 133.3 970 0 9 -- Chart
1960 8 6 00 19.8 132.9 965 0 9 -- Chart
1960 8 6 06 20.8 132.3 950 0 9 -- Chart
1960 8 6 12 21.8 131.6 935 0 9 -- Chart
1960 8 6 18 22.8 130.6 935 0 9 -- Chart
1960 8 7 00 23.8 129.0 930 0 9 -- Chart
1960 8 7 06 24.7 127.0 930 0 9 -- Chart
1960 8 7 12 25.3 125.3 930 0 9 -- Chart
1960 8 7 18 25.3 123.4 940 0 9 -- Chart
1960 8 8 00 25.2 122.1 960 0 9 -- Chart
1960 8 8 06 25.1 120.4 965 0 9 -- Chart
1960 8 8 12 24.7 119.5 970 0 9 -- Chart
1960 8 8 18 24.5 119.0 980 0 9 -- Chart
1960 8 9 00 24.0 117.5 990 0 9 -- Chart
1960 8 9 06 24.0 116.8 990 0 9 -- Chart
1960 8 9 12 23.8 116.0 990 0 9 -- Chart
1960 8 9 18 23.6 115.2 992 0 2 -- Chart
1960 8 10 00 23.5 114.5 994 0 2 -- Chart
1960 8 10 06 23.4 114.0 994 0 2 -- Chart
1960 8 10 12 23.0 113.0 994 0 2 -- Chart
1960 8 10 18 22.9 112.5 994 0 2 -- Chart
1960 8 11 00 22.8 112.1 994 0 2 -- Chart
1960 8 11 06 22.6 111.8 994 0 2 -- Chart
1960 8 11 12 22.5 111.0 994 0 2 -- Chart
1960 8 11 18 22.0 110.0 996 0 2 -- Chart
1960 8 12 00 22.0 109.5 996 0 2 -- Chart
1960 8 12 06 22.0 109.0 996 0 2 -- Chart
1960 8 12 12 22.0 108.8 998 0 2 -- Chart
1960 8 12 18 21.8 108.2 998 0 2 -- Chart
1960 8 13 00 21.8 107.4 998 0 2 -- Chart
Japan Meteorological Agency Best Track Data | Correction Date : 1989-06-01
< Typhoon 196008 1960 Season Typhoon 196010 >

Help